Thursday, September 20, 2018, 4:22 PM EDT
Back to Local

KHWV, Shirley Brookhaven Airport

Location: Shirley, NY, United States Lat: 40.817
Local Time: 4:22 PM EDT (20:22 GMT) Lon: -72.867
Time Zone: US/Eastern Elev: 82 ft

Show me the last for .
Show Decoded

2018-09-20 15:56 METAR KHWV 201956Z AUTO 13005KT 10SM FEW026 SCT032 BKN043 21/14 A3022 RMK AO2
                 SLP233 T02060144 =
2018-09-20 14:56 METAR KHWV 201856Z AUTO VRB04KT 10SM CLR 23/14 A3022 RMK AO2 SLP234 T02280139 =
2018-09-20 13:56 METAR KHWV 201756Z AUTO 02006KT 10SM CLR 22/13 A3022 RMK AO2 SLP234 T02220133
                 10228 20167 58003 =
2018-09-20 12:56 METAR KHWV 201656Z AUTO 36005KT 10SM SCT026 OVC055 22/14 A3024 RMK AO2 SLP239
                 T02170139 =
2018-09-20 11:56 METAR KHWV 201556Z AUTO VRB04KT 10SM SCT055 21/14 A3025 RMK AO2 SLP241 T02110144
                 =
2018-09-20 10:56 METAR KHWV 201456Z AUTO 02007KT 10SM FEW018 BKN055 20/14 A3023 RMK AO2 SLP237
                 T02000139 51018 =
2018-09-20 09:56 METAR KHWV 201356Z AUTO 01003KT 10SM OVC055 18/14 A3022 RMK AO2 SLP233 T01830139
                 =
2018-09-20 08:56 METAR KHWV 201256Z AUTO 36005KT 10SM OVC055 18/13 A3020 RMK AO2 SLP227 T01780133
                 =
2018-09-20 07:56 METAR KHWV 201156Z AUTO 36003KT 10SM OVC055 17/13 A3018 RMK AO2 SLP220 T01670133
                 10178 20156 53020 =
2018-09-20 06:56 METAR KHWV 201056Z AUTO 03003KT 10SM OVC060 16/13 A3016 RMK AO2 SLP211 T01610128
                 =
2018-09-20 05:56 METAR KHWV 200956Z AUTO 02004KT 10SM OVC060 17/13 A3014 RMK AO2 SLP205 T01670128
                 =
2018-09-20 05:16 METAR KHWV 200916Z AUTO VRB03KT 10SM SCT023 OVC060 17/13 A3013 RMK AO2 T01670128
                 =
2018-09-20 05:07 METAR KHWV 200907Z AUTO VRB03KT 10SM BKN023 OVC060 17/13 A3012 RMK AO2 T01670128
                 =
2018-09-20 04:56 METAR KHWV 200856Z AUTO 00000KT 10SM SCT023 OVC060 17/12 A3012 RMK AO2 SLP198
                 T01670122 53005 =
2018-09-20 03:56 METAR KHWV 200756Z AUTO VRB03KT 10SM BKN060 16/12 A3011 RMK AO2 SLP195 T01610122
                 =
2018-09-20 03:09 METAR KHWV 200709Z AUTO 00000KT 10SM SCT022 16/12 A3010 RMK AO2 T01610122 =
2018-09-20 02:56 METAR KHWV 200656Z AUTO VRB04KT 10SM BKN022 17/12 A3010 RMK AO2 SLP193 T01670122
                 =
2018-09-20 02:54 METAR KHWV 200654Z AUTO VRB04KT 10SM BKN022 BKN037 17/12 A3011 RMK AO2 =
2018-09-20 01:56 METAR KHWV 200556Z AUTO VRB04KT 10SM FEW023 OVC036 17/12 A3010 RMK AO2 SLP192
                 T01720122 10200 20172 51010 =
2018-09-20 00:56 METAR KHWV 200456Z AUTO VRB06KT 10SM OVC032 17/12 A3009 RMK AO2 SLP189 T01720122
                 402560172 =
2018-09-19 23:56 METAR KHWV 200356Z AUTO VRB05KT 10SM OVC035 17/13 A3009 RMK AO2 SLP189 T01720128
                 =
2018-09-19 23:26 METAR KHWV 200326Z AUTO VRB03KT 10SM SCT020 OVC036 18/13 A3009 RMK AO2 T01780133
                 =
2018-09-19 23:19 METAR KHWV 200319Z AUTO 03005KT 10SM BKN020 OVC036 18/13 A3009 RMK AO2 T01780133
                 =
2018-09-19 22:56 METAR KHWV 200256Z AUTO VRB04KT 10SM SCT020 BKN038 OVC050 18/14 A3007 RMK AO2
                 SLP183 T01830139 51026 =
2018-09-19 22:35 METAR KHWV 200235Z AUTO VRB05KT 10SM SCT017 OVC040 19/14 A3007 RMK AO2 T01890144
                 =
2018-09-19 21:56 METAR KHWV 200156Z AUTO VRB03KT 10SM OVC015 19/16 A3005 RMK AO2 SLP174 T01890156
                 =
2018-09-19 21:19 METAR KHWV 200119Z AUTO VRB03KT 10SM BKN018 OVC033 19/16 A3004 RMK AO2 T01940161
                 =
2018-09-19 20:56 METAR KHWV 200056Z AUTO 00000KT 10SM FEW018 BKN036 OVC049 19/16 A3004 RMK AO2
                 PRESRR SLP172 T01940161 =
2018-09-19 20:46 METAR KHWV 200046Z AUTO VRB03KT 10SM SCT018 BKN034 OVC045 19/16 A3002 RMK AO2
                 T01940161 =
2018-09-19 20:31 METAR KHWV 200031Z AUTO 09005KT 10SM BKN018 BKN034 OVC047 19/16 A3001 RMK AO2
                 T01940161 =
2018-09-19 19:56 METAR KHWV 192356Z AUTO VRB03KT 10SM FEW015 SCT040 20/17 A3000 RMK AO2 SLP156
                 T02000172 10256 20200 53010 =
2018-09-19 18:56 METAR KHWV 192256Z AUTO 00000KT 10SM SCT047 21/17 A2998 RMK AO2 SLP151 T02060172
                 =
2018-09-19 18:26 METAR KHWV 192226Z AUTO VRB05KT 10SM SCT029 21/18 A2997 RMK AO2 T02110178 =
2018-09-19 18:16 METAR KHWV 192216Z AUTO 09004KT 10SM BKN029 22/18 A2997 RMK AO2 T02170178 =
2018-09-19 18:06 METAR KHWV 192206Z AUTO VRB03KT 10SM OVC030 22/18 A2997 RMK AO2 T02170178 =
2018-09-19 17:56 METAR KHWV 192156Z AUTO VRB03KT 10SM OVC029 22/18 A2997 RMK AO2 SLP147 T02220178
                 =
2018-09-19 17:54 METAR KHWV 192154Z AUTO VRB03KT 10SM OVC029 22/18 A2997 RMK AO2 =
2018-09-19 16:56 METAR KHWV 192056Z AUTO VRB03KT 10SM FEW022 SCT030 23/18 A2993 RMK AO2 SLP133
                 T02280183 53004 =

Support USWX by starting your Amazon purchase here.